Time;durP1;ratioP1;P1;durP2;ratioP2;P2;SDS_P1;SDS_P2;PMS_P1;PMS_P2;Temp;Humidity;BMP_temperature;BMP_pressure;BME280_temperature;BME280_humidity;BME280_pressure;Samples;Min_cycle;Max_cycle;Signal;HPM_P1;HPM_P2
2021/03/11 00:01:29;;;;;;;28.23;21.20;;;3.20;99.90;;;;;;5074116;28;20182;-56
2021/03/11 00:03:54;;;;;;;29.43;21.37;;;3.10;99.90;;;;;;5074323;28;20213;-48
2021/03/11 00:06:20;;;;;;;29.23;20.60;;;3.10;99.90;;;;;;5074877;28;20201;-48
2021/03/11 00:08:45;;;;;;;27.97;21.27;;;3.10;99.90;;;;;;5073477;28;20174;-48
2021/03/11 00:11:11;;;;;;;27.30;20.63;;;3.10;99.90;;;;;;5074369;28;20194;-48
2021/03/11 00:13:36;;;;;;;27.50;19.80;;;3.10;99.90;;;;;;5074633;28;20565;-50
2021/03/11 00:16:02;;;;;;;27.67;20.53;;;3.20;99.90;;;;;;5074142;28;20264;-53
2021/03/11 00:18:28;;;;;;;29.87;21.60;;;3.10;99.90;;;;;;5074827;28;20578;-54
2021/03/11 00:20:53;;;;;;;28.40;21.33;;;3.10;99.90;;;;;;5074167;28;20174;-52
2021/03/11 00:23:19;;;;;;;31.47;22.10;;;3.20;99.90;;;;;;5073911;28;20182;-48
2021/03/11 00:25:44;;;;;;;30.40;22.27;;;3.10;99.90;;;;;;5075473;28;20218;-52
2021/03/11 00:28:10;;;;;;;34.63;23.77;;;3.10;99.90;;;;;;5074293;28;20171;-48
2021/03/11 00:30:36;;;;;;;29.50;21.83;;;3.20;99.90;;;;;;5077989;28;20214;-48
2021/03/11 00:33:01;;;;;;;29.93;21.40;;;3.20;99.90;;;;;;5077938;28;20254;-51
2021/03/11 00:35:27;;;;;;;32.33;23.67;;;3.20;99.90;;;;;;5078382;28;20320;-48
2021/03/11 00:37:52;;;;;;;31.60;22.23;;;3.10;99.90;;;;;;5077738;28;20170;-51
2021/03/11 00:40:20;;;;;;;29.37;21.77;;;3.10;99.90;;;;;;5078554;28;20617;-52
2021/03/11 00:42:47;;;;;;;32.30;22.60;;;3.10;99.90;;;;;;5077715;28;20202;-56
2021/03/11 00:45:13;;;;;;;30.47;22.27;;;3.20;99.90;;;;;;5077415;28;20464;-48
2021/03/11 00:47:40;;;;;;;33.07;23.00;;;3.30;99.90;;;;;;5077715;28;20413;-53
2021/03/11 00:50:17;;;;;;;29.50;22.20;;;3.20;99.90;;;;;;5077385;28;20174;-52
2021/03/11 00:52:43;;;;;;;32.97;23.67;;;3.30;99.90;;;;;;5076917;28;20388;-49
2021/03/11 00:55:11;;;;;;;29.30;22.20;;;3.20;99.90;;;;;;5077388;28;20479;-48
2021/03/11 00:57:37;;;;;;;32.33;23.57;;;3.30;99.90;;;;;;5078263;28;20188;-48
2021/03/11 01:00:06;;;;;;;29.87;22.57;;;3.30;99.90;;;;;;5077835;28;20417;-47
2021/03/11 01:02:31;;;;;;;30.97;21.80;;;3.20;99.90;;;;;;5076771;28;20428;-47
2021/03/11 01:04:57;;;;;;;31.07;23.20;;;3.20;99.90;;;;;;5076762;28;20468;-48
2021/03/11 01:07:22;;;;;;;33.03;24.10;;;3.30;99.90;;;;;;5077212;28;20185;-48
2021/03/11 01:09:48;;;;;;;31.30;22.53;;;3.30;99.90;;;;;;5076604;28;20232;-57
2021/03/11 01:12:14;;;;;;;33.17;22.73;;;3.40;99.90;;;;;;5077118;28;20171;-49
2021/03/11 01:14:42;;;;;;;30.30;21.83;;;3.40;99.90;;;;;;5078395;28;20180;-53
2021/03/11 01:17:08;;;;;;;31.00;23.53;;;3.40;99.90;;;;;;5077325;28;20424;-48
2021/03/11 01:19:35;;;;;;;33.47;23.90;;;3.40;99.90;;;;;;5076549;28;20466;-49
2021/03/11 01:22:00;;;;;;;33.07;23.33;;;3.50;99.90;;;;;;5077669;28;20427;-57
2021/03/11 01:24:26;;;;;;;34.70;24.73;;;3.40;99.90;;;;;;5077772;28;20456;-56
2021/03/11 01:26:52;;;;;;;34.07;23.37;;;3.40;99.90;;;;;;5077327;28;20253;-56
2021/03/11 01:29:17;;;;;;;34.20;24.07;;;3.40;99.90;;;;;;5076267;28;20221;-47
2021/03/11 01:31:43;;;;;;;34.40;25.13;;;3.40;99.90;;;;;;5076733;28;20175;-54
2021/03/11 01:34:08;;;;;;;33.37;24.13;;;3.40;99.90;;;;;;5076961;28;20231;-53
2021/03/11 01:36:34;;;;;;;35.07;26.03;;;3.40;99.90;;;;;;5076790;28;20238;-47
2021/03/11 01:39:00;;;;;;;34.50;25.13;;;3.50;99.90;;;;;;5076983;28;20217;-54
2021/03/11 01:41:25;;;;;;;39.50;25.93;;;3.50;99.90;;;;;;5087430;28;20212;-48
2021/03/11 01:43:55;;;;;;;38.37;27.27;;;3.50;99.90;;;;;;5096559;28;20553;-57
2021/03/11 01:46:26;;;;;;;37.47;25.87;;;3.50;99.90;;;;;;5096904;28;20193;-48
2021/03/11 01:48:53;;;;;;;39.80;26.63;;;3.50;99.90;;;;;;5096740;28;20396;-47
2021/03/11 01:51:21;;;;;;;42.17;27.73;;;3.50;99.90;;;;;;5096824;28;20435;-56
2021/03/11 01:53:47;;;;;;;37.70;26.53;;;3.40;99.90;;;;;;5096502;28;20412;-51
2021/03/11 01:56:13;;;;;;;39.17;26.50;;;3.40;99.90;;;;;;5096486;28;20282;-55
2021/03/11 01:58:40;;;;;;;42.77;28.03;;;3.50;99.90;;;;;;5095860;28;20282;-48
2021/03/11 02:01:05;;;;;;;38.40;26.83;;;3.60;99.90;;;;;;5096650;28;20388;-51
2021/03/11 02:03:31;;;;;;;41.63;27.80;;;3.60;99.90;;;;;;5096308;28;20193;-48
2021/03/11 02:05:57;;;;;;;38.10;25.60;;;3.70;99.90;;;;;;5096833;28;20259;-48
2021/03/11 02:08:22;;;;;;;37.27;26.67;;;3.60;99.90;;;;;;5096244;28;20176;-49
2021/03/11 02:10:48;;;;;;;37.00;26.03;;;3.70;99.90;;;;;;5096868;28;20632;-47
2021/03/11 02:13:31;;;;;;;35.33;25.23;;;3.70;99.90;;;;;;5096775;28;20629;-56
2021/03/11 02:16:14;;;;;;;40.53;27.90;;;3.70;99.90;;;;;;5096951;28;20198;-55
2021/03/11 02:18:50;;;;;;;39.57;27.73;;;3.80;99.90;;;;;;5097419;28;20197;-51
2021/03/11 02:21:31;;;;;;;37.20;25.47;;;3.80;99.90;;;;;;5095689;28;20211;-47
2021/03/11 02:24:28;;;;;;;41.63;27.80;;;3.80;99.90;;;;;;5096205;28;20197;-48
2021/03/11 02:27:25;;;;;;;43.17;28.67;;;3.90;99.90;;;;;;5096587;28;20184;-48
2021/03/11 02:29:53;;;;;;;40.03;27.00;;;3.80;99.90;;;;;;5095708;28;20195;-55
2021/03/11 02:32:20;;;;;;;40.50;27.63;;;3.80;99.90;;;;;;5095494;28;20249;-49
2021/03/11 02:34:49;;;;;;;38.80;28.23;;;3.80;99.90;;;;;;5096413;28;20431;-48
2021/03/11 02:37:21;;;;;;;39.27;27.63;;;3.90;99.90;;;;;;5096120;28;20166;-48
2021/03/11 02:39:59;;;;;;;40.40;28.07;;;3.80;99.90;;;;;;5095589;28;20166;-47
2021/03/11 02:42:26;;;;;;;37.33;26.87;;;3.80;99.90;;;;;;5096584;28;20248;-48
2021/03/11 02:44:53;;;;;;;43.77;29.07;;;3.80;99.90;;;;;;5095410;28;20210;-48
2021/03/11 02:47:18;;;;;;;40.67;28.67;;;3.90;99.90;;;;;;5095613;28;20213;-55
2021/03/11 02:49:45;;;;;;;41.07;29.20;;;3.90;99.90;;;;;;5096415;28;20174;-56
2021/03/11 02:52:12;;;;;;;44.03;29.27;;;4.00;99.90;;;;;;5093224;28;20180;-47
2021/03/11 02:54:38;;;;;;;42.97;28.97;;;4.10;99.90;;;;;;5096126;28;20184;-48
2021/03/11 02:57:06;;;;;;;44.83;30.13;;;4.10;99.90;;;;;;5095903;28;20197;-47
2021/03/11 02:59:32;;;;;;;40.40;26.43;;;4.10;99.90;;;;;;5094906;28;20269;-50
2021/03/11 03:02:00;;;;;;;42.93;29.10;;;4.10;99.90;;;;;;5094979;28;20185;-53
2021/03/11 03:04:29;;;;;;;43.73;28.80;;;4.20;99.90;;;;;;5096107;28;20206;-56
2021/03/11 03:06:56;;;;;;;43.67;29.07;;;4.10;99.90;;;;;;5096088;28;20173;-52
2021/03/11 03:09:22;;;;;;;40.87;28.00;;;4.00;99.90;;;;;;5094889;28;20514;-49
2021/03/11 03:11:48;;;;;;;42.60;28.57;;;3.90;99.90;;;;;;5094589;28;20181;-51
2021/03/11 03:14:15;;;;;;;42.83;29.13;;;4.00;99.90;;;;;;5095307;28;20181;-52
2021/03/11 03:16:41;;;;;;;42.47;28.97;;;3.90;99.90;;;;;;5095214;28;20186;-56
2021/03/11 03:19:10;;;;;;;43.20;28.27;;;3.90;99.90;;;;;;5094733;28;20178;-47
2021/03/11 03:21:35;;;;;;;40.80;27.30;;;3.90;99.90;;;;;;5095005;28;20535;-48
2021/03/11 03:24:02;;;;;;;41.27;28.53;;;3.90;99.90;;;;;;5094910;28;20649;-56
2021/03/11 03:26:27;;;;;;;39.43;27.47;;;4.00;99.90;;;;;;5095073;28;20186;-49
2021/03/11 03:28:53;;;;;;;45.07;29.47;;;4.00;99.90;;;;;;5094503;28;20185;-47
2021/03/11 03:31:19;;;;;;;41.80;27.60;;;4.10;99.90;;;;;;5094436;28;20178;-47
2021/03/11 03:33:44;;;;;;;42.23;28.43;;;4.20;99.90;;;;;;5095038;28;20184;-47
2021/03/11 03:36:10;;;;;;;43.07;28.13;;;4.30;99.90;;;;;;5095429;28;20193;-53
2021/03/11 03:38:35;;;;;;;41.50;27.83;;;4.30;99.90;;;;;;5093548;28;20284;-48
2021/03/11 03:41:02;;;;;;;42.30;28.30;;;4.30;99.90;;;;;;5094210;28;20174;-56
2021/03/11 03:43:32;;;;;;;43.50;28.30;;;4.30;99.90;;;;;;5094306;28;20202;-53
2021/03/11 03:46:14;;;;;;;40.00;27.30;;;4.30;99.90;;;;;;5095647;28;20200;-52
2021/03/11 03:48:43;;;;;;;41.40;28.10;;;4.40;99.90;;;;;;5094639;28;20561;-47
2021/03/11 03:51:10;;;;;;;40.10;27.40;;;4.40;99.90;;;;;;5094628;28;20178;-51
2021/03/11 03:53:43;;;;;;;38.60;27.40;;;4.30;99.90;;;;;;5094659;28;20185;-57
2021/03/11 03:56:20;;;;;;;41.23;28.07;;;4.30;99.90;;;;;;5094940;28;20323;-55
2021/03/11 03:58:47;;;;;;;39.57;27.67;;;4.30;99.90;;;;;;5094878;28;20228;-49
2021/03/11 04:01:14;;;;;;;40.57;27.63;;;4.30;99.90;;;;;;5093873;28;20185;-52
2021/03/11 04:03:40;;;;;;;37.77;26.53;;;4.30;99.90;;;;;;5094385;28;20189;-48
2021/03/11 04:06:09;;;;;;;38.90;26.97;;;4.30;99.90;;;;;;5093990;28;20205;-50
2021/03/11 04:08:35;;;;;;;42.07;27.10;;;4.40;99.90;;;;;;5093650;28;20645;-55
2021/03/11 04:11:02;;;;;;;42.00;27.70;;;4.50;99.90;;;;;;5095368;28;20685;-50
2021/03/11 04:13:31;;;;;;;39.27;26.87;;;4.50;99.90;;;;;;5091362;28;20665;-55
2021/03/11 04:15:57;;;;;;;39.50;27.43;;;4.40;99.90;;;;;;5083740;28;20208;-46
2021/03/11 04:18:23;;;;;;;40.30;26.70;;;4.40;99.90;;;;;;5085842;28;20198;-48
2021/03/11 04:20:50;;;;;;;39.77;27.00;;;4.50;99.90;;;;;;5085618;28;20167;-51
2021/03/11 04:23:16;;;;;;;42.07;27.50;;;4.40;99.90;;;;;;5085399;28;20178;-49
2021/03/11 04:25:42;;;;;;;41.40;28.10;;;4.40;99.90;;;;;;5084222;28;20190;-48
2021/03/11 04:28:08;;;;;;;39.10;26.87;;;4.50;99.90;;;;;;5093239;28;20528;-48
2021/03/11 04:30:34;;;;;;;38.67;25.97;;;4.50;99.90;;;;;;5094364;28;20223;-53
2021/03/11 04:33:00;;;;;;;37.77;26.20;;;4.50;99.90;;;;;;5093663;28;20173;-51
2021/03/11 04:35:26;;;;;;;38.83;26.77;;;4.50;99.90;;;;;;5093815;28;20204;-51
2021/03/11 04:37:52;;;;;;;41.17;27.80;;;4.60;99.90;;;;;;5093763;28;20234;-47
2021/03/11 04:40:17;;;;;;;42.67;27.30;;;4.50;99.90;;;;;;5093750;28;20571;-48
2021/03/11 04:42:43;;;;;;;38.40;27.03;;;4.40;99.90;;;;;;5094943;28;20666;-55
2021/03/11 04:45:09;;;;;;;42.20;28.67;;;4.30;99.90;;;;;;5095129;28;20213;-51
2021/03/11 04:47:37;;;;;;;38.90;26.20;;;4.40;99.90;;;;;;5091263;28;20178;-50
2021/03/11 04:50:05;;;;;;;40.23;26.47;;;4.40;99.90;;;;;;5079120;28;20658;-51
2021/03/11 04:52:31;;;;;;;37.80;26.47;;;4.30;99.90;;;;;;5093799;28;20250;-48
2021/03/11 04:54:59;;;;;;;39.97;26.67;;;4.20;99.90;;;;;;5094745;28;20660;-51
2021/03/11 04:57:27;;;;;;;41.17;27.20;;;4.20;99.90;;;;;;5095302;28;20629;-54
2021/03/11 04:59:53;;;;;;;39.60;27.27;;;4.10;99.90;;;;;;5093560;28;20752;-48
2021/03/11 05:02:19;;;;;;;37.97;26.57;;;4.20;99.90;;;;;;5093570;28;20523;-53
2021/03/11 05:04:45;;;;;;;40.90;30.20;;;4.10;99.90;;;;;;5095040;28;20276;-53
2021/03/11 05:07:14;;;;;;;38.80;26.67;;;4.00;99.90;;;;;;5094064;28;20223;-48
2021/03/11 05:09:40;;;;;;;38.73;26.67;;;3.90;99.90;;;;;;5093284;28;20197;-52
2021/03/11 05:12:06;;;;;;;36.20;25.60;;;3.90;99.90;;;;;;5093429;28;20182;-49
2021/03/11 05:14:31;;;;;;;35.43;25.07;;;3.80;99.90;;;;;;5094951;28;20234;-52
2021/03/11 05:16:57;;;;;;;37.67;26.23;;;3.80;99.90;;;;;;5096993;28;20166;-49
2021/03/11 05:19:22;;;;;;;39.77;26.43;;;3.80;99.90;;;;;;5098355;28;20166;-50
2021/03/11 05:21:48;;;;;;;36.27;24.93;;;3.80;99.90;;;;;;5096079;28;20672;-54
2021/03/11 05:24:14;;;;;;;36.83;25.17;;;3.90;99.90;;;;;;5098728;28;20209;-52
2021/03/11 05:26:39;;;;;;;37.07;25.07;;;4.00;99.90;;;;;;5097402;28;20239;-48
2021/03/11 05:29:05;;;;;;;36.83;26.07;;;4.00;99.90;;;;;;5097288;28;20177;-48
2021/03/11 05:31:30;;;;;;;36.13;25.00;;;4.10;99.90;;;;;;5096548;28;20177;-48
2021/03/11 05:33:56;;;;;;;35.20;24.07;;;4.30;99.90;;;;;;5097230;28;20178;-48
2021/03/11 05:36:21;;;;;;;37.77;25.17;;;4.30;99.90;;;;;;5096670;28;20589;-49
2021/03/11 05:38:47;;;;;;;33.70;23.87;;;4.40;99.90;;;;;;5097137;28;20597;-52
2021/03/11 05:41:14;;;;;;;35.97;25.67;;;4.20;99.90;;;;;;5097838;28;20177;-47
2021/03/11 05:43:40;;;;;;;41.57;29.07;;;4.10;99.90;;;;;;5096696;28;20592;-48
2021/03/11 05:46:07;;;;;;;37.27;26.83;;;4.10;99.90;;;;;;5097566;28;20650;-48
2021/03/11 05:48:36;;;;;;;36.90;25.33;;;4.20;99.90;;;;;;5087347;28;20189;-48
2021/03/11 05:51:03;;;;;;;34.00;23.77;;;4.30;99.90;;;;;;5075536;28;20243;-49
2021/03/11 05:53:31;;;;;;;35.13;24.57;;;4.40;99.90;;;;;;5075871;28;20170;-48
2021/03/11 05:55:57;;;;;;;32.67;22.70;;;4.50;99.90;;;;;;5076233;28;20201;-58
2021/03/11 05:58:23;;;;;;;33.37;24.00;;;4.60;99.90;;;;;;5077254;28;20246;-52
2021/03/11 06:00:48;;;;;;;30.43;22.00;;;4.70;99.90;;;;;;5075945;28;20492;-48
2021/03/11 06:03:14;;;;;;;31.57;22.60;;;4.70;99.90;;;;;;5076250;28;20178;-48
2021/03/11 06:05:40;;;;;;;30.60;22.27;;;4.80;99.90;;;;;;5076516;28;20653;-48
2021/03/11 06:08:08;;;;;;;42.10;31.73;;;4.80;99.90;;;;;;5089346;28;20177;-48
2021/03/11 06:10:35;;;;;;;32.17;22.90;;;4.70;99.90;;;;;;5095581;28;20270;-48
2021/03/11 06:13:02;;;;;;;30.33;22.03;;;4.70;99.90;;;;;;5098121;28;20190;-53
2021/03/11 06:15:34;;;;;;;31.10;22.33;;;4.70;99.90;;;;;;5091261;28;20213;-53
2021/03/11 06:18:03;;;;;;;31.07;22.33;;;4.80;99.90;;;;;;5096924;28;20179;-48
2021/03/11 06:20:29;;;;;;;33.23;23.60;;;4.90;99.90;;;;;;5094249;28;20677;-51
2021/03/11 06:22:54;;;;;;;30.43;22.37;;;4.90;99.90;;;;;;5093985;28;20258;-50
2021/03/11 06:25:20;;;;;;;28.53;21.50;;;5.00;99.90;;;;;;5093303;28;20229;-53
2021/03/11 06:27:46;;;;;;;26.63;19.73;;;5.00;99.90;;;;;;5092883;28;20169;-54
2021/03/11 06:30:35;;;;;;;28.73;20.37;;;5.00;99.90;;;;;;5093956;28;20170;-57
2021/03/11 06:33:03;;;;;;;29.93;20.50;;;4.80;99.90;;;;;;5094952;28;20312;-51
2021/03/11 06:35:28;;;;;;;28.13;20.37;;;4.70;99.90;;;;;;5093520;28;20193;-52
2021/03/11 06:37:55;;;;;;;28.27;20.63;;;4.50;99.90;;;;;;5095269;28;20227;-48
2021/03/11 06:40:26;;;;;;;27.20;20.23;;;4.40;99.90;;;;;;5096567;28;20178;-49
2021/03/11 06:43:03;;;;;;;27.47;20.30;;;4.40;99.90;;;;;;5096862;28;20174;-55
2021/03/11 06:45:29;;;;;;;27.30;19.30;;;4.40;99.90;;;;;;5095684;28;20346;-50
2021/03/11 06:48:18;;;;;;;29.33;21.73;;;4.60;99.90;;;;;;5084464;28;20627;-49
2021/03/11 06:50:44;;;;;;;27.43;19.30;;;4.80;99.90;;;;;;5095903;28;20178;-50
2021/03/11 06:53:09;;;;;;;25.17;19.10;;;4.90;99.90;;;;;;5078110;28;20200;-48
2021/03/11 06:55:35;;;;;;;25.10;19.07;;;5.00;99.90;;;;;;5075865;28;20202;-55
2021/03/11 06:58:19;;;;;;;24.67;18.97;;;5.00;99.90;;;;;;5074783;28;20209;-52
2021/03/11 07:00:46;;;;;;;24.47;17.97;;;4.90;99.90;;;;;;5075060;28;20269;-48
2021/03/11 07:03:12;;;;;;;25.37;19.17;;;4.70;99.90;;;;;;5075286;28;20232;-48
2021/03/11 07:05:42;;;;;;;25.43;18.67;;;4.80;99.90;;;;;;5075879;28;20214;-49
2021/03/11 07:08:16;;;;;;;22.83;17.17;;;4.90;99.90;;;;;;5095404;28;20225;-50
2021/03/11 07:10:44;;;;;;;22.50;17.83;;;4.90;99.90;;;;;;5097746;28;20200;-48
2021/03/11 07:13:10;;;;;;;24.50;18.17;;;5.00;99.90;;;;;;5090351;28;20177;-48
2021/03/11 07:15:37;;;;;;;22.63;16.90;;;5.20;99.90;;;;;;5074405;28;20301;-52
2021/03/11 07:18:07;;;;;;;25.23;18.73;;;5.40;99.90;;;;;;5091053;28;20221;-57
2021/03/11 07:20:34;;;;;;;23.87;17.73;;;5.60;99.90;;;;;;5085903;28;20519;-55
2021/03/11 07:23:11;;;;;;;22.63;17.47;;;5.80;99.90;;;;;;5080856;28;20175;-49
2021/03/11 07:25:47;;;;;;;22.13;16.93;;;6.10;99.90;;;;;;5075319;28;20229;-51
2021/03/11 07:28:25;;;;;;;21.83;17.03;;;6.20;99.90;;;;;;5075774;28;20182;-55
2021/03/11 07:30:54;;;;;;;23.67;18.07;;;6.30;99.90;;;;;;5074014;28;20174;-51
2021/03/11 07:33:24;;;;;;;22.83;17.80;;;6.10;99.90;;;;;;5074447;28;20642;-53
2021/03/11 07:35:52;;;;;;;20.27;16.07;;;5.90;99.90;;;;;;5074360;28;20225;-57
2021/03/11 07:38:22;;;;;;;21.33;16.77;;;5.80;99.90;;;;;;5074592;28;20178;-58
2021/03/11 07:40:50;;;;;;;23.80;17.40;;;5.70;99.90;;;;;;5074391;28;20205;-51
2021/03/11 07:43:16;;;;;;;21.60;17.07;;;5.90;99.90;;;;;;5074198;28;20185;-51
2021/03/11 07:45:42;;;;;;;21.70;16.77;;;6.10;99.90;;;;;;5074403;28;20233;-47
2021/03/11 07:48:12;;;;;;;21.50;16.47;;;6.40;99.90;;;;;;5073987;28;20166;-50
2021/03/11 07:50:39;;;;;;;21.37;16.20;;;6.70;99.90;;;;;;5074102;28;20186;-48
2021/03/11 07:53:05;;;;;;;21.87;17.03;;;6.80;99.90;;;;;;5074355;28;20170;-58
2021/03/11 07:55:31;;;;;;;21.30;16.90;;;6.90;99.90;;;;;;5074148;28;20668;-58
2021/03/11 07:57:58;;;;;;;21.53;16.60;;;7.10;99.90;;;;;;5073317;28;20185;-54
2021/03/11 08:00:25;;;;;;;21.93;17.10;;;7.30;99.90;;;;;;5082955;28;20181;-53
2021/03/11 08:03:07;;;;;;;20.50;16.77;;;7.30;99.90;;;;;;5083753;28;20202;-48
2021/03/11 08:05:33;;;;;;;19.87;15.83;;;7.50;99.90;;;;;;5084271;28;20221;-56
2021/03/11 08:08:22;;;;;;;22.87;18.37;;;7.60;99.90;;;;;;5081783;28;20599;-50
2021/03/11 08:10:49;;;;;;;21.03;17.30;;;7.60;99.90;;;;;;5073880;28;20593;-54
2021/03/11 08:13:23;;;;;;;20.87;16.50;;;7.60;99.90;;;;;;5085726;28;20196;-53
2021/03/11 08:15:52;;;;;;;22.60;17.73;;;7.60;99.90;;;;;;5076168;28;20314;-54
2021/03/11 08:18:33;;;;;;;19.53;15.60;;;7.70;99.90;;;;;;5073671;28;20541;-55
2021/03/11 08:21:00;;;;;;;20.13;16.23;;;7.40;99.90;;;;;;5073920;28;20269;-48
2021/03/11 08:23:30;;;;;;;19.27;15.73;;;7.20;99.90;;;;;;5074023;28;20178;-51
2021/03/11 08:25:56;;;;;;;21.93;16.60;;;7.20;99.90;;;;;;5073899;28;20221;-48
2021/03/11 08:28:22;;;;;;;23.27;16.47;;;7.30;99.90;;;;;;5073461;28;20174;-55
2021/03/11 08:30:51;;;;;;;23.67;17.30;;;7.30;99.90;;;;;;5075237;28;20177;-49
2021/03/11 08:33:20;;;;;;;19.00;15.33;;;7.20;99.90;;;;;;5094216;28;20158;-48
2021/03/11 08:35:47;;;;;;;24.10;17.80;;;7.30;99.90;;;;;;5093562;28;20246;-53
2021/03/11 08:38:25;;;;;;;19.60;15.90;;;7.40;99.90;;;;;;5101141;28;20259;-51
2021/03/11 08:40:58;;;;;;;21.87;17.57;;;7.30;99.90;;;;;;5106179;28;20170;-48
2021/03/11 08:43:41;;;;;;;21.67;17.33;;;7.30;99.90;;;;;;5111322;28;20576;-49
2021/03/11 08:46:15;;;;;;;21.87;16.50;;;7.30;99.90;;;;;;5073646;28;20674;-49
2021/03/11 08:48:41;;;;;;;21.43;17.37;;;7.30;99.90;;;;;;5073332;28;20202;-53
2021/03/11 08:51:12;;;;;;;25.20;18.40;;;7.30;99.90;;;;;;5076919;28;20206;-53
2021/03/11 08:53:45;;;;;;;20.57;15.37;;;7.30;99.90;;;;;;5077314;28;20178;-54
2021/03/11 08:56:16;;;;;;;20.87;16.00;;;7.30;99.90;;;;;;5077067;28;20217;-51
2021/03/11 08:59:04;;;;;;;23.70;17.00;;;7.40;99.90;;;;;;5077180;28;20224;-53
2021/03/11 09:01:51;;;;;;;24.70;17.00;;;7.50;99.90;;;;;;5077693;28;20163;-48
2021/03/11 09:04:20;;;;;;;19.93;15.40;;;7.60;99.90;;;;;;5078290;28;20197;-55
2021/03/11 09:07:02;;;;;;;20.60;16.23;;;7.70;99.90;;;;;;5084982;28;20201;-49
2021/03/11 09:09:45;;;;;;;22.57;18.13;;;7.70;99.90;;;;;;5097119;28;20315;-48
2021/03/11 09:12:16;;;;;;;20.97;15.93;;;7.80;99.90;;;;;;5096926;28;20174;-48
2021/03/11 09:14:47;;;;;;;19.87;16.27;;;7.80;99.90;;;;;;5100956;28;20638;-53
2021/03/11 09:17:18;;;;;;;21.30;16.97;;;7.80;99.90;;;;;;5117758;28;20180;-53
2021/03/11 09:19:49;;;;;;;21.57;17.30;;;7.60;99.90;;;;;;5117728;28;20300;-53
2021/03/11 09:22:37;;;;;;;23.17;18.17;;;7.50;99.90;;;;;;5116860;28;20185;-48
2021/03/11 09:25:19;;;;;;;22.03;16.93;;;7.50;99.90;;;;;;5100060;27;20305;-53
2021/03/11 09:28:00;;;;;;;22.63;18.17;;;7.50;99.90;;;;;;5083098;28;20185;-48
2021/03/11 09:30:31;;;;;;;23.87;17.90;;;7.40;99.90;;;;;;5078579;28;20630;-54
2021/03/11 09:33:07;;;;;;;21.00;16.77;;;7.40;99.90;;;;;;5076952;28;20173;-48
2021/03/11 09:35:32;;;;;;;20.17;16.90;;;7.30;99.90;;;;;;5089552;28;20254;-48
2021/03/11 09:38:02;;;;;;;21.77;17.30;;;7.20;99.90;;;;;;5082933;28;20186;-49
2021/03/11 09:40:27;;;;;;;20.20;16.80;;;7.20;99.90;;;;;;5081610;28;20277;-52
2021/03/11 09:43:13;;;;;;;21.93;16.27;;;7.10;99.90;;;;;;5098366;28;20628;-51
2021/03/11 09:45:43;;;;;;;24.13;17.30;;;6.90;99.90;;;;;;5100185;28;20308;-53
2021/03/11 09:48:28;;;;;;;22.27;17.90;;;6.80;99.90;;;;;;5116874;28;20177;-53
2021/03/11 09:50:55;;;;;;;23.03;17.03;;;6.70;99.90;;;;;;5102723;28;20185;-48
2021/03/11 09:53:22;;;;;;;22.37;17.87;;;6.60;99.90;;;;;;5087974;28;20173;-48
2021/03/11 09:55:51;;;;;;;23.77;18.53;;;6.50;99.90;;;;;;5096412;28;20251;-48
2021/03/11 09:58:19;;;;;;;24.17;18.37;;;6.50;99.90;;;;;;5094918;28;20205;-48
2021/03/11 10:00:46;;;;;;;20.57;17.40;;;6.40;99.90;;;;;;5095616;28;20174;-53
2021/03/11 10:03:26;;;;;;;22.90;16.87;;;6.40;99.90;;;;;;5095740;28;20644;-48
2021/03/11 10:06:03;;;;;;;22.10;17.90;;;6.40;99.90;;;;;;5084502;28;20205;-48
2021/03/11 10:08:33;;;;;;;22.47;17.60;;;6.40;99.90;;;;;;5078216;28;20216;-48
2021/03/11 10:10:59;;;;;;;23.57;16.73;;;6.50;99.90;;;;;;5096220;28;20189;-52
2021/03/11 10:13:39;;;;;;;21.23;16.30;;;6.50;99.90;;;;;;5096487;28;20169;-48
2021/03/11 10:16:06;;;;;;;25.03;18.20;;;6.60;99.90;;;;;;5082946;28;20197;-57
2021/03/11 10:18:33;;;;;;;21.40;17.43;;;6.60;99.90;;;;;;5086569;28;20186;-49
2021/03/11 10:21:09;;;;;;;21.50;16.97;;;6.70;99.90;;;;;;5077855;28;20174;-54
2021/03/11 10:23:37;;;;;;;21.20;17.10;;;6.80;99.90;;;;;;5073545;28;20185;-48
2021/03/11 10:26:13;;;;;;;21.07;16.47;;;6.90;99.90;;;;;;5089418;28;20197;-53
2021/03/11 10:28:41;;;;;;;18.73;15.30;;;7.00;99.90;;;;;;5086264;28;20201;-50
2021/03/11 10:31:07;;;;;;;19.73;16.30;;;7.20;99.90;;;;;;5074237;28;20163;-49
2021/03/11 10:33:33;;;;;;;20.73;16.77;;;7.40;99.90;;;;;;5073480;28;20726;-56
2021/03/11 10:36:13;;;;;;;21.17;15.80;;;7.70;99.90;;;;;;5079630;28;20210;-54
2021/03/11 10:38:39;;;;;;;18.30;14.97;;;8.10;99.90;;;;;;5083867;28;20216;-54
2021/03/11 10:41:16;;;;;;;20.00;14.50;;;8.20;99.90;;;;;;5075562;28;20167;-51
2021/03/11 10:43:42;;;;;;;17.80;14.63;;;8.30;99.90;;;;;;5075410;28;20617;-52
2021/03/11 10:46:14;;;;;;;15.20;12.90;;;8.60;99.90;;;;;;5075077;28;20225;-48
2021/03/11 10:48:51;;;;;;;16.50;13.30;;;8.80;99.90;;;;;;5094109;28;20269;-49
2021/03/11 10:51:18;;;;;;;15.53;12.73;;;8.90;99.90;;;;;;5094903;28;20162;-48
2021/03/11 10:53:44;;;;;;;17.97;14.17;;;8.70;99.90;;;;;;5095442;28;20181;-57
2021/03/11 10:56:11;;;;;;;15.83;12.97;;;8.60;99.90;;;;;;5095028;28;20190;-50
2021/03/11 10:58:36;;;;;;;15.90;12.97;;;8.60;99.90;;;;;;5094925;28;20181;-56
2021/03/11 11:01:13;;;;;;;17.13;13.87;;;8.60;99.90;;;;;;5094908;28;20166;-57
2021/03/11 11:03:39;;;;;;;18.13;13.40;;;8.80;99.90;;;;;;5095131;28;20525;-52
2021/03/11 11:06:05;;;;;;;15.70;12.87;;;8.90;99.90;;;;;;5094819;28;20203;-55
2021/03/11 11:08:31;;;;;;;16.60;13.57;;;9.10;99.90;;;;;;5094302;28;20177;-51
2021/03/11 11:10:57;;;;;;;16.63;13.00;;;9.00;99.90;;;;;;5094157;28;20634;-51
2021/03/11 11:13:23;;;;;;;15.07;12.47;;;9.00;99.90;;;;;;5092228;28;20177;-48
2021/03/11 11:15:49;;;;;;;15.70;13.20;;;9.10;99.90;;;;;;5093832;28;20198;-53
2021/03/11 11:19:02;;;;;;;16.17;12.50;;;9.20;99.90;;;;;;5094588;28;20234;-52
2021/03/11 11:21:29;;;;;;;15.60;12.23;;;9.20;99.90;;;;;;5082611;28;20231;-50
2021/03/11 11:34:01;;;;;;;16.53;12.53;;;8.50;99.90;;;;;;5074272;28;20170;-51
2021/03/11 11:36:26;;;;;;;15.40;13.07;;;8.40;99.90;;;;;;5073157;28;20210;-50
2021/03/11 11:38:52;;;;;;;17.37;11.93;;;8.40;99.90;;;;;;5089263;28;20225;-48
2021/03/11 11:41:19;;;;;;;15.23;12.70;;;8.40;99.90;;;;;;5093803;28;20567;-48
2021/03/11 11:43:45;;;;;;;14.10;11.93;;;8.50;99.90;;;;;;5094316;28;20184;-53
2021/03/11 11:46:11;;;;;;;13.80;11.90;;;8.60;99.90;;;;;;5075663;28;20206;-52
2021/03/11 11:48:37;;;;;;;14.20;11.73;;;8.70;99.90;;;;;;5073967;28;20166;-54
2021/03/11 11:51:03;;;;;;;13.67;11.80;;;8.90;99.90;;;;;;5076679;28;20201;-53
2021/03/11 11:53:29;;;;;;;12.93;11.20;;;9.00;99.90;;;;;;5082059;28;20186;-48
2021/03/11 11:55:54;;;;;;;13.23;11.40;;;9.00;99.90;;;;;;5078988;28;20210;-53
2021/03/11 11:58:20;;;;;;;13.17;11.10;;;9.20;99.90;;;;;;5083441;28;20272;-50
2021/03/11 12:00:46;;;;;;;14.97;11.70;;;9.30;99.90;;;;;;5093253;28;20197;-49
2021/03/11 12:03:11;;;;;;;13.33;11.37;;;9.40;99.90;;;;;;5073736;28;20285;-52
2021/03/11 12:05:37;;;;;;;14.40;11.63;;;9.60;99.90;;;;;;5084693;28;20209;-48
2021/03/11 12:08:03;;;;;;;13.57;11.47;;;9.70;99.90;;;;;;5092315;28;20257;-52
2021/03/11 12:10:29;;;;;;;13.90;11.57;;;9.80;99.90;;;;;;5083323;28;20193;-48
2021/03/11 12:12:54;;;;;;;13.40;11.43;;;9.70;99.90;;;;;;5094055;28;20256;-51
2021/03/11 12:15:20;;;;;;;14.33;12.70;;;9.90;99.90;;;;;;5093554;28;20576;-51
2021/03/11 12:17:46;;;;;;;12.17;10.30;;;10.20;99.90;;;;;;5093462;28;20190;-51
2021/03/11 12:20:12;;;;;;;12.17;10.77;;;10.40;99.90;;;;;;5094036;28;20525;-50
2021/03/11 12:22:37;;;;;;;12.50;11.07;;;10.50;99.90;;;;;;5092453;28;20193;-48
2021/03/11 12:25:04;;;;;;;12.13;10.13;;;10.70;99.90;;;;;;5097488;28;20292;-54
2021/03/11 12:27:29;;;;;;;12.60;10.63;;;10.70;99.90;;;;;;5088784;28;20174;-50
2021/03/11 12:29:55;;;;;;;13.10;11.17;;;11.20;99.90;;;;;;5087344;28;20185;-50
2021/03/11 12:32:21;;;;;;;13.63;10.80;;;10.40;99.90;;;;;;5079884;28;20311;-49
2021/03/11 12:34:48;;;;;;;11.73;10.10;;;10.20;99.90;;;;;;5076622;28;20178;-48
2021/03/11 12:37:14;;;;;;;12.90;11.00;;;9.80;99.90;;;;;;5058622;28;20262;-55
2021/03/11 12:39:40;;;;;;;12.47;10.73;;;9.80;99.90;;;;;;5079862;28;20753;-54
2021/03/11 12:42:06;;;;;;;14.60;10.90;;;9.90;99.90;;;;;;5091583;28;20211;-50
2021/03/11 12:44:32;;;;;;;11.33;9.97;;;10.00;99.90;;;;;;5095142;28;20276;-48
2021/03/11 12:46:57;;;;;;;12.23;10.73;;;10.30;99.90;;;;;;5093818;28;20182;-55
2021/03/11 12:49:23;;;;;;;11.57;9.97;;;10.50;99.90;;;;;;5095447;28;20177;-54
2021/03/11 12:51:49;;;;;;;12.03;10.43;;;10.70;99.90;;;;;;5097318;28;20177;-50
2021/03/11 12:54:15;;;;;;;11.93;10.17;;;10.80;99.90;;;;;;5096098;28;20197;-48